Live aus Altenrhein
LIVE
LSZR 272350Z AUTO 11006KT 9999 OVC002 20/17 Q1003

People´s Info Center:

Öffnungszeiten Mo-Fr, 8-18 Uhr

 

info@peoples.ch

 
Aus Österreich:

T: +43 (0)5572 203 610

 

Aus CH / LI / DE:

T: +41 (0)71 858 51 60

 

Wie viel bezahle ich für mein Kind an Bord?

 

Babies

Babies bis zum 2. Geburtstag fliegen generell kostenlos. Der Sitzplatz des Elternteils bzw. der Begleitperson ist auch der Sitzplatz des Babies.

 

Kinder

Kinder von 2 – 11.99 Jahre zahlen 50% des Erwachsenen-Tarifs. Ab 12 Jahre bezahlen Kinder den Erwachsenen-Tarif.

 

Die kleinen Passagiere an Bord erhalten ein People’s-Malbuch und Farbstifte dazu.